If you wish to contribute or participate in the discussions about articles you are invited to join SKYbrary as a registered user

 Actions

Proserpine Whitsunday Coast Airport

From SKYbrary Wiki

YBPN
Airport
ICAO: YBPN – IATA: PPP
Summary
Name Proserpine Whitsunday Coast Airport
Region Asia and Pacific
Territory "YB" is not in the list (AG, AN, AY, BG, BI, BK, C, CT, DA, DB, ...) of allowed values for the "ICAO Territory" property.
Location , Queensland
Serving Prosserpine
Elevation 24.994 m
82 ft
82 ft24.994 m
Type medium airport
Coordinates 20° 29' 42.00" S, 148° 33' 8.00" E
Runways
Designator Length Width Surface ROPS
6/24 1100 m3,608.924 ft
30 m98.425 ft
ASP /
11/29 2073 m6,801.181 ft
45 m147.638 ft
ASP yes/yes


METAR
Observation YBPN 200500Z AUTO 12013KT 9999 // NCD 34/15 Q1009
Station Proserpine Airport
Date/Time 20 November 2019 05:00:00
Wind direction 120°
Wind speed 13 kts
Lowest cloud amount no clouds detected
Temperature 34°C
Dew point 15°C
Humidity 32%
QNH 1009 hPa
Weather condition n/a